createdAt,value
2023-01-23T00:01:28.493Z,55.10
2023-01-23T00:03:56.401Z,53.33
2023-01-23T00:06:23.959Z,49.88
2023-01-23T00:08:51.028Z,48.88
2023-01-23T00:11:21.077Z,54.70
2023-01-23T00:13:47.902Z,51.33
2023-01-23T00:16:17.421Z,57.03
2023-01-23T00:18:44.207Z,52.40
2023-01-23T00:21:16.040Z,56.33
2023-01-23T00:23:48.168Z,50.25
2023-01-23T00:26:17.765Z,54.45
2023-01-23T00:28:46.673Z,62.92
2023-01-23T00:31:17.918Z,55.85
2023-01-23T00:33:45.778Z,56.55
2023-01-23T00:36:14.236Z,59.70
2023-01-23T00:38:41.603Z,59.20
2023-01-23T00:41:08.886Z,56.58
2023-01-23T00:43:35.724Z,56.60
2023-01-23T00:46:02.841Z,57.08
2023-01-23T00:48:29.691Z,53.83
2023-01-23T00:50:56.766Z,54.53
2023-01-23T00:53:23.707Z,58.85
2023-01-23T00:55:50.641Z,54.13
2023-01-23T00:58:18.650Z,58.40
2023-01-23T01:00:45.649Z,60.78
2023-01-23T01:03:12.506Z,52.97
2023-01-23T01:05:41.096Z,54.95
2023-01-23T01:08:07.833Z,59.67
2023-01-23T01:10:34.899Z,62.00
2023-01-23T01:13:03.331Z,65.25
2023-01-23T01:15:30.983Z,55.30
2023-01-23T01:17:58.644Z,63.30
2023-01-23T01:20:27.153Z,48.95
2023-01-23T01:22:59.459Z,51.80
2023-01-23T01:25:26.566Z,50.13
2023-01-23T01:27:56.047Z,48.90
2023-01-23T01:30:23.379Z,48.80
2023-01-23T01:32:50.205Z,50.78
2023-01-23T01:35:16.996Z,47.72
2023-01-23T01:37:43.812Z,48.50
2023-01-23T01:40:18.711Z,50.58
2023-01-23T01:43:01.412Z,53.00
2023-01-23T01:46:04.669Z,51.58
2023-01-23T01:48:37.339Z,48.30
2023-01-23T01:51:23.059Z,52.70
2023-01-23T01:54:10.395Z,52.70
2023-01-23T01:57:00.863Z,49.58
2023-01-23T01:59:32.174Z,50.13
2023-01-23T02:02:13.840Z,47.72
2023-01-23T02:04:48.876Z,50.20
2023-01-23T02:07:49.007Z,49.63
2023-01-23T02:10:16.932Z,46.08
2023-01-23T02:12:52.042Z,47.47
2023-01-23T02:15:20.431Z,45.83
2023-01-23T02:17:49.896Z,44.83
2023-01-23T02:20:36.991Z,48.03
2023-01-23T02:23:25.633Z,46.90
2023-01-23T02:26:06.785Z,45.40
2023-01-23T02:28:40.768Z,44.92
2023-01-23T02:31:09.358Z,46.92
2023-01-23T02:33:39.081Z,46.10
2023-01-23T02:36:09.108Z,43.20
2023-01-23T02:38:45.962Z,43.33
2023-01-23T02:41:15.958Z,43.75
2023-01-23T02:43:44.129Z,45.55
2023-01-23T02:46:13.081Z,41.28
2023-01-23T02:48:40.928Z,41.78
2023-01-23T02:51:08.196Z,42.50
2023-01-23T02:53:35.045Z,39.08
2023-01-23T02:56:01.895Z,42.97
2023-01-23T02:58:47.873Z,39.10
2023-01-23T03:01:14.688Z,41.67
2023-01-23T03:03:44.323Z,37.72
2023-01-23T03:06:12.782Z,37.45
2023-01-23T03:08:49.272Z,39.85
2023-01-23T03:11:18.650Z,42.03
2023-01-23T03:13:47.192Z,36.55
2023-01-23T03:16:14.853Z,33.45
2023-01-23T03:18:53.419Z,35.90
2023-01-23T03:21:21.396Z,42.22
2023-01-23T03:23:48.418Z,37.30
2023-01-23T03:26:15.902Z,40.78
2023-01-23T03:29:01.756Z,38.72
2023-01-23T03:31:28.805Z,43.53
2023-01-23T03:33:55.724Z,42.97
2023-01-23T03:36:23.559Z,41.50
2023-01-23T03:39:09.729Z,41.63
2023-01-23T03:41:38.347Z,42.30
2023-01-23T03:44:06.528Z,37.58
2023-01-23T03:46:33.448Z,41.08
2023-01-23T03:49:00.230Z,41.67
2023-01-23T03:51:27.521Z,37.42
2023-01-23T03:53:54.660Z,40.72
2023-01-23T03:56:21.648Z,39.85
2023-01-23T03:58:48.489Z,39.90
2023-01-23T04:01:15.561Z,42.03
2023-01-23T04:03:44.600Z,39.17
2023-01-23T04:06:11.577Z,41.72
2023-01-23T04:08:39.029Z,41.78
2023-01-23T04:11:08.372Z,38.95
2023-01-23T04:13:35.879Z,37.33
2023-01-23T04:16:03.800Z,38.97
2023-01-23T04:18:30.861Z,38.78
2023-01-23T04:20:58.649Z,38.10
2023-01-23T04:23:26.264Z,34.70
2023-01-23T04:25:54.005Z,37.15
2023-01-23T04:28:22.013Z,37.10
2023-01-23T04:30:53.532Z,39.30
2023-01-23T04:33:30.948Z,37.13
2023-01-23T04:36:01.036Z,35.38
2023-01-23T04:38:31.025Z,37.22
2023-01-23T04:41:07.530Z,36.35
2023-01-23T04:43:37.431Z,36.22
2023-01-23T04:46:08.461Z,36.25
2023-01-23T04:48:55.015Z,35.42
2023-01-23T04:51:24.008Z,35.33
2023-01-23T04:53:51.106Z,35.03
2023-01-23T04:56:18.021Z,36.20
2023-01-23T04:58:44.849Z,33.53
2023-01-23T05:01:16.767Z,35.53
2023-01-23T05:03:44.709Z,31.10
2023-01-23T05:06:11.497Z,30.20
2023-01-23T05:08:38.232Z,32.92
2023-01-23T05:11:28.125Z,36.15
2023-01-23T05:13:55.115Z,33.42
2023-01-23T05:16:21.914Z,33.83
2023-01-23T05:19:12.832Z,32.67
2023-01-23T05:21:39.836Z,31.33
2023-01-23T05:24:10.746Z,36.00
2023-01-23T05:26:38.089Z,33.67
2023-01-23T05:29:05.071Z,33.83
2023-01-23T05:31:35.535Z,34.00
2023-01-23T05:34:25.379Z,33.90
2023-01-23T05:36:52.237Z,34.63
2023-01-23T05:39:20.078Z,33.85
2023-01-23T05:41:47.099Z,35.95
2023-01-23T05:44:39.903Z,33.43
2023-01-23T05:47:14.633Z,36.03
2023-01-23T05:49:41.357Z,32.85
2023-01-23T05:52:09.150Z,34.05
2023-01-23T05:54:35.906Z,31.45
2023-01-23T05:57:02.768Z,36.70
2023-01-23T06:00:11.872Z,33.97
2023-01-23T06:03:00.100Z,35.80
2023-01-23T06:05:45.460Z,35.15
2023-01-23T06:08:19.717Z,32.10
2023-01-23T06:10:46.612Z,36.53
2023-01-23T06:13:13.992Z,34.58
2023-01-23T06:15:42.114Z,32.45
2023-01-23T06:18:11.352Z,33.47
2023-01-23T06:20:38.254Z,33.63
2023-01-23T06:23:05.715Z,39.45
2023-01-23T06:25:33.319Z,35.55
2023-01-23T06:28:06.190Z,31.48
2023-01-23T06:30:37.009Z,36.90
2023-01-23T06:33:10.422Z,37.15
2023-01-23T06:35:41.107Z,36.97
2023-01-23T06:38:08.161Z,37.25
2023-01-23T06:40:35.924Z,35.20
2023-01-23T06:43:17.686Z,33.38
2023-01-23T06:45:46.033Z,31.80
2023-01-23T06:48:13.428Z,35.20
2023-01-23T06:50:43.145Z,33.38
2023-01-23T06:53:14.495Z,37.40
2023-01-23T06:55:41.771Z,34.45
2023-01-23T06:58:08.676Z,35.58
2023-01-23T07:00:35.932Z,34.28
2023-01-23T07:03:06.444Z,38.67
2023-01-23T07:05:39.703Z,33.95
2023-01-23T07:08:08.475Z,36.00
2023-01-23T07:10:37.841Z,33.97
2023-01-23T07:13:09.842Z,31.20
2023-01-23T07:15:38.657Z,36.40
2023-01-23T07:18:09.128Z,33.72
2023-01-23T07:20:35.958Z,33.50
2023-01-23T07:23:04.712Z,37.72
2023-01-23T07:25:31.576Z,31.98
2023-01-23T07:27:58.357Z,40.08
2023-01-23T07:30:26.360Z,33.80
2023-01-23T07:32:53.580Z,35.70
2023-01-23T07:35:22.248Z,37.13
2023-01-23T07:37:48.975Z,36.78
2023-01-23T07:40:15.907Z,36.85
2023-01-23T07:42:42.819Z,36.10
2023-01-23T07:45:10.988Z,36.28
2023-01-23T07:47:41.533Z,36.42
2023-01-23T07:50:14.578Z,34.28
2023-01-23T07:52:41.750Z,35.95
2023-01-23T07:55:08.931Z,37.83
2023-01-23T07:57:35.752Z,36.80
2023-01-23T08:00:02.964Z,40.80
2023-01-23T08:02:40.251Z,36.80
2023-01-23T08:05:07.554Z,44.05
2023-01-23T08:07:34.509Z,37.38
2023-01-23T08:10:01.319Z,35.72
2023-01-23T08:12:29.408Z,37.90
2023-01-23T08:14:58.693Z,35.17
2023-01-23T08:17:25.768Z,41.97
2023-01-23T08:19:52.706Z,38.30
2023-01-23T08:22:19.508Z,34.08
2023-01-23T08:24:47.318Z,38.33
2023-01-23T08:27:14.309Z,34.42
2023-01-23T08:29:41.755Z,32.67
2023-01-23T08:32:08.764Z,37.67
2023-01-23T08:34:35.737Z,36.78
2023-01-23T08:37:03.816Z,38.25
2023-01-23T08:39:30.659Z,41.42
2023-01-23T08:41:57.392Z,36.20
2023-01-23T08:44:25.310Z,39.05
2023-01-23T08:46:52.156Z,35.85
2023-01-23T08:49:20.450Z,32.83
2023-01-23T08:51:47.680Z,35.33
2023-01-23T08:54:14.465Z,34.60
2023-01-23T08:56:41.428Z,34.63
2023-01-23T08:59:09.082Z,33.70
2023-01-23T09:01:38.867Z,35.17
2023-01-23T09:04:05.687Z,32.10
2023-01-23T09:06:32.458Z,34.05
2023-01-23T09:08:59.338Z,32.75
2023-01-23T09:11:26.121Z,32.55
2023-01-23T09:13:54.083Z,31.67
2023-01-23T09:16:21.259Z,31.73
2023-01-23T09:18:48.275Z,27.67
2023-01-23T09:21:17.549Z,29.63
2023-01-23T09:23:45.655Z,31.85
2023-01-23T09:26:14.496Z,30.08
2023-01-23T09:28:42.844Z,31.50
2023-01-23T09:31:12.532Z,29.55
2023-01-23T09:33:39.776Z,29.95
2023-01-23T09:36:10.059Z,29.70
2023-01-23T09:38:40.123Z,38.63
2023-01-23T09:41:26.379Z,30.23
2023-01-23T09:44:10.865Z,31.25
2023-01-23T09:46:47.140Z,29.73
2023-01-23T09:49:41.340Z,31.15
2023-01-23T09:52:21.760Z,29.52
2023-01-23T09:54:49.976Z,26.58
2023-01-23T09:57:23.009Z,30.92
2023-01-23T10:00:00.138Z,30.08
2023-01-23T10:02:27.802Z,27.02
2023-01-23T10:04:56.625Z,29.73
2023-01-23T10:07:44.510Z,29.27
2023-01-23T10:10:32.816Z,28.33
2023-01-23T10:13:05.046Z,28.95
2023-01-23T10:15:42.572Z,26.45
2023-01-23T10:18:09.269Z,26.85
2023-01-23T10:20:58.971Z,32.70
2023-01-23T10:23:46.416Z,29.10
2023-01-23T10:26:23.617Z,31.80
2023-01-23T10:28:56.479Z,30.92
2023-01-23T10:31:44.694Z,27.73
2023-01-23T10:34:39.745Z,28.48
2023-01-23T10:37:18.208Z,26.13
2023-01-23T10:39:45.063Z,30.60
2023-01-23T10:42:16.975Z,24.80
2023-01-23T10:44:44.074Z,26.17
2023-01-23T10:47:23.009Z,29.48
2023-01-23T10:49:52.504Z,24.13
2023-01-23T10:52:39.973Z,27.42
2023-01-23T10:55:36.956Z,28.75
2023-01-23T10:58:04.020Z,24.17
2023-01-23T11:00:39.745Z,25.02
2023-01-23T11:03:39.893Z,25.63
2023-01-23T11:06:09.454Z,25.77
2023-01-23T11:08:50.089Z,27.08
2023-01-23T11:11:16.885Z,27.08
2023-01-23T11:13:48.577Z,29.33
2023-01-23T11:16:17.660Z,25.10
2023-01-23T11:18:54.364Z,24.05
2023-01-23T11:21:27.528Z,23.67
2023-01-23T11:24:10.482Z,24.08
2023-01-23T11:26:39.708Z,22.10
2023-01-23T11:29:21.707Z,23.98
2023-01-23T11:31:53.980Z,23.27
2023-01-23T11:34:24.655Z,25.53
2023-01-23T11:37:15.943Z,22.33
2023-01-23T11:39:57.765Z,23.38
2023-01-23T11:42:28.608Z,26.17
2023-01-23T11:44:58.572Z,22.85
2023-01-23T11:47:58.966Z,25.33
2023-01-23T11:50:37.105Z,20.25
2023-01-23T11:54:00.577Z,27.38
2023-01-23T11:56:45.801Z,26.55
2023-01-23T11:59:38.095Z,24.67
2023-01-23T12:02:04.876Z,25.23
2023-01-23T12:04:59.332Z,24.17
2023-01-23T12:07:26.657Z,22.90
2023-01-23T12:10:16.334Z,23.23
2023-01-23T12:12:57.635Z,26.05
2023-01-23T12:15:42.060Z,23.70
2023-01-23T12:18:08.775Z,25.02
2023-01-23T12:21:17.025Z,23.92
2023-01-23T12:24:19.412Z,21.23
2023-01-23T12:27:01.401Z,19.38
2023-01-23T12:29:42.925Z,37.20
2023-01-23T12:32:47.365Z,20.50
2023-01-23T12:35:32.808Z,19.35
2023-01-23T12:38:20.661Z,25.52
2023-01-23T12:40:58.864Z,22.17
2023-01-23T12:44:07.133Z,19.95
2023-01-23T12:46:40.637Z,21.83
2023-01-23T12:49:30.679Z,21.33
2023-01-23T12:52:05.126Z,22.52
2023-01-23T12:54:39.617Z,24.98
2023-01-23T12:57:08.316Z,23.80
2023-01-23T13:00:00.875Z,21.77
2023-01-23T13:02:40.601Z,26.60
2023-01-23T13:05:21.277Z,19.73
2023-01-23T13:07:59.931Z,23.55
2023-01-23T13:11:32.767Z,21.98
2023-01-23T13:14:00.954Z,22.13
2023-01-23T13:16:31.042Z,22.92
2023-01-23T13:19:33.187Z,20.17
2023-01-23T13:22:27.424Z,20.63
2023-01-23T13:25:13.445Z,22.83
2023-01-23T13:27:59.218Z,22.20
2023-01-23T13:30:32.508Z,20.52
2023-01-23T13:35:47.565Z,21.05
2023-01-23T13:38:23.560Z,22.70
2023-01-23T13:41:05.363Z,24.50
2023-01-23T13:43:55.315Z,23.25
2023-01-23T14:21:46.396Z,27.70
2023-01-23T14:27:36.756Z,23.45
2023-01-23T14:30:19.515Z,27.00
2023-01-23T14:32:46.847Z,26.13
2023-01-23T14:35:26.776Z,25.90
2023-01-23T14:37:56.622Z,25.83
2023-01-23T14:40:28.033Z,27.02
2023-01-23T14:43:02.411Z,28.05
2023-01-23T14:45:33.131Z,34.47
2023-01-23T14:48:05.952Z,26.35
2023-01-23T14:50:33.200Z,25.92
2023-01-23T14:53:06.093Z,31.48
2023-01-23T14:55:37.317Z,30.17
2023-01-23T14:58:05.182Z,28.75
2023-01-23T15:00:32.475Z,30.08
2023-01-23T15:02:59.314Z,27.73
2023-01-23T15:05:28.437Z,26.42
2023-01-23T15:08:21.200Z,26.58
2023-01-23T15:10:50.622Z,27.02
2023-01-23T15:13:40.614Z,29.88
2023-01-23T15:16:13.845Z,26.27
2023-01-23T15:21:33.091Z,26.38
2023-01-23T15:24:16.294Z,29.25
2023-01-23T15:26:57.626Z,27.00
2023-01-23T15:29:24.453Z,27.33
2023-01-23T15:31:54.017Z,29.25
2023-01-23T15:34:31.002Z,29.55
2023-01-23T15:37:22.813Z,26.75
2023-01-23T15:40:02.444Z,26.83
2023-01-23T15:42:33.618Z,27.95
2023-01-23T15:45:01.669Z,24.98
2023-01-23T15:47:36.036Z,25.10
2023-01-23T15:50:04.410Z,28.80
2023-01-23T15:52:46.966Z,27.92
2023-01-23T15:55:14.696Z,27.65
2023-01-23T15:57:43.261Z,30.55
2023-01-23T16:00:17.607Z,29.10
2023-01-23T16:02:55.729Z,24.65
2023-01-23T16:05:25.372Z,25.05
2023-01-23T16:07:52.660Z,28.17
2023-01-23T16:10:20.718Z,28.75
2023-01-23T16:12:49.882Z,29.30
2023-01-23T16:15:19.951Z,28.65
2023-01-23T16:17:47.084Z,28.05
2023-01-23T16:20:22.598Z,30.05
2023-01-23T16:22:52.810Z,34.88
2023-01-23T16:25:41.945Z,26.98
2023-01-23T16:28:30.745Z,25.65
2023-01-23T16:30:57.533Z,30.13
2023-01-23T16:33:24.503Z,30.80
2023-01-23T16:35:52.288Z,31.30
2023-01-23T16:38:25.291Z,29.60
2023-01-23T16:40:53.844Z,26.85
2023-01-23T16:43:21.543Z,29.45
2023-01-23T16:45:48.307Z,32.65
2023-01-23T16:48:25.384Z,30.02
2023-01-23T16:50:57.531Z,30.42
2023-01-23T16:53:30.015Z,31.40
2023-01-23T16:55:59.087Z,31.70
2023-01-23T16:58:53.741Z,32.20
2023-01-23T17:01:23.095Z,32.92
2023-01-23T17:04:02.469Z,28.75
2023-01-23T17:06:30.158Z,31.98
2023-01-23T17:08:57.026Z,29.67
2023-01-23T17:11:34.190Z,32.20
2023-01-23T17:14:11.145Z,33.47
2023-01-23T17:16:38.058Z,32.30
2023-01-23T17:19:15.552Z,32.70
2023-01-23T17:21:42.515Z,30.88
2023-01-23T17:24:14.821Z,33.08
2023-01-23T17:26:41.708Z,32.38
2023-01-23T17:29:08.664Z,32.40
2023-01-23T17:31:36.095Z,32.38
2023-01-23T17:34:04.271Z,31.52
2023-01-23T17:36:31.212Z,32.33
2023-01-23T17:39:00.983Z,34.13
2023-01-23T17:41:28.045Z,32.88
2023-01-23T17:43:54.885Z,34.10
2023-01-23T17:46:28.031Z,34.55
2023-01-23T17:48:56.670Z,34.28
2023-01-23T17:51:25.544Z,31.38
2023-01-23T17:53:52.678Z,35.88
2023-01-23T17:56:19.622Z,31.00
2023-01-23T17:58:46.533Z,35.80
2023-01-23T18:01:23.609Z,33.20
2023-01-23T18:03:51.968Z,32.15
2023-01-23T18:06:20.272Z,33.95
2023-01-23T18:08:47.095Z,33.92
2023-01-23T18:11:22.341Z,32.88
2023-01-23T18:13:57.784Z,31.77
2023-01-23T18:16:26.906Z,34.70
2023-01-23T18:19:16.635Z,32.50
2023-01-23T18:21:44.851Z,33.88
2023-01-23T18:24:32.688Z,32.55
2023-01-23T18:27:05.207Z,34.50
2023-01-23T18:29:40.859Z,36.03
2023-01-23T18:32:26.564Z,35.38
2023-01-23T18:35:14.220Z,37.28
2023-01-23T18:37:52.971Z,35.00
2023-01-23T18:40:42.818Z,34.05
2023-01-23T18:43:27.596Z,34.55
2023-01-23T18:45:55.857Z,34.00
2023-01-23T18:48:26.018Z,34.97
2023-01-23T18:51:20.945Z,34.75
2023-01-23T18:53:59.786Z,32.85
2023-01-23T18:56:54.225Z,34.55
2023-01-23T19:02:46.943Z,33.78
2023-01-23T19:05:16.691Z,35.17
2023-01-23T19:07:45.164Z,35.08
2023-01-23T19:10:19.393Z,34.88
2023-01-23T19:13:17.573Z,32.90
2023-01-23T19:16:08.666Z,31.55
2023-01-23T19:18:41.176Z,34.17
2023-01-23T19:21:19.969Z,31.90
2023-01-23T19:23:58.486Z,33.95
2023-01-23T19:26:33.883Z,32.47
2023-01-23T19:29:19.300Z,32.13
2023-01-23T19:32:02.958Z,33.72
2023-01-23T19:34:31.362Z,31.70
2023-01-23T19:36:58.106Z,33.53
2023-01-23T19:39:24.819Z,33.75
2023-01-23T19:41:53.311Z,34.33
2023-01-23T19:44:24.226Z,34.50
2023-01-23T19:46:52.011Z,36.15
2023-01-23T19:49:18.964Z,35.08
2023-01-23T19:51:45.796Z,33.47
2023-01-23T19:54:14.293Z,45.75
2023-01-23T19:56:42.441Z,37.97
2023-01-23T19:59:09.572Z,37.70
2023-01-23T20:01:49.652Z,39.92
2023-01-23T20:04:20.635Z,37.10
2023-01-23T20:06:49.100Z,39.60
2023-01-23T20:09:16.238Z,38.53
2023-01-23T20:11:44.288Z,35.50
2023-01-23T20:14:14.417Z,38.15
2023-01-23T20:16:43.252Z,39.05
2023-01-23T20:19:14.443Z,40.58
2023-01-23T20:21:41.167Z,36.28
2023-01-23T20:24:08.417Z,37.70
2023-01-23T20:26:35.416Z,39.35
2023-01-23T20:29:03.930Z,38.85
2023-01-23T20:31:31.246Z,37.90
2023-01-23T20:33:59.443Z,39.38
2023-01-23T20:36:26.342Z,42.05
2023-01-23T20:38:53.148Z,39.92
2023-01-23T20:41:21.133Z,38.30
2023-01-23T20:43:48.261Z,40.67
2023-01-23T20:46:16.526Z,41.17
2023-01-23T20:48:44.562Z,40.78
2023-01-23T20:51:12.466Z,38.42
2023-01-23T20:53:40.104Z,37.60
2023-01-23T20:56:17.463Z,34.35
2023-01-23T20:59:05.858Z,36.10
2023-01-23T21:01:54.062Z,37.97
2023-01-23T21:04:22.070Z,38.58
2023-01-23T21:06:48.887Z,40.67
2023-01-23T21:09:16.435Z,36.65
2023-01-23T21:11:43.242Z,36.35
2023-01-23T21:14:10.315Z,38.47
2023-01-23T21:16:37.179Z,38.25
2023-01-23T21:19:04.327Z,38.00
2023-01-23T21:21:31.161Z,36.53
2023-01-23T21:23:58.169Z,36.13
2023-01-23T21:26:27.004Z,42.28
2023-01-23T21:28:55.032Z,37.85
2023-01-23T21:31:26.349Z,36.33
2023-01-23T21:33:54.071Z,37.45
2023-01-23T21:36:24.938Z,38.53
2023-01-23T21:38:52.790Z,41.13
2023-01-23T21:41:19.782Z,38.33
2023-01-23T21:43:46.731Z,39.05
2023-01-23T21:46:14.058Z,39.95
2023-01-23T21:48:41.128Z,42.25
2023-01-23T21:51:19.303Z,33.97
2023-01-23T21:53:48.269Z,38.65
2023-01-23T21:56:16.944Z,40.17
2023-01-23T21:58:43.767Z,36.45
2023-01-23T22:01:31.961Z,39.38
2023-01-23T22:04:00.428Z,38.95
2023-01-23T22:06:27.683Z,39.63
2023-01-23T22:08:55.864Z,36.45
2023-01-23T22:11:22.625Z,38.15
2023-01-23T22:13:49.439Z,40.88
2023-01-23T22:16:16.607Z,39.78
2023-01-23T22:18:43.434Z,38.13
2023-01-23T22:21:10.606Z,41.17
2023-01-23T22:23:37.834Z,39.05
2023-01-23T22:26:08.200Z,31.38
2023-01-23T22:28:35.757Z,36.85
2023-01-23T22:31:14.346Z,37.28
2023-01-23T22:33:44.500Z,36.15
2023-01-23T22:36:15.018Z,34.90
2023-01-23T22:38:41.792Z,35.85
2023-01-23T22:41:12.034Z,36.75
2023-01-23T22:43:38.761Z,36.35
2023-01-23T22:46:14.387Z,38.30
2023-01-23T22:48:41.189Z,35.55
2023-01-23T22:51:19.738Z,39.60
2023-01-23T22:53:48.165Z,33.10
2023-01-23T22:56:15.265Z,35.03
2023-01-23T22:58:46.238Z,37.60
2023-01-23T23:01:13.893Z,33.00
2023-01-23T23:03:41.098Z,36.75
2023-01-23T23:06:10.630Z,34.45
2023-01-23T23:08:37.801Z,36.30
2023-01-23T23:11:10.979Z,34.60
2023-01-23T23:13:40.477Z,33.92
2023-01-23T23:16:18.024Z,33.38
2023-01-23T23:18:46.972Z,38.00
2023-01-23T23:21:15.834Z,35.30
2023-01-23T23:23:42.668Z,31.38
2023-01-23T23:26:11.003Z,36.70
2023-01-23T23:28:39.051Z,34.85
2023-01-23T23:31:07.800Z,34.35
2023-01-23T23:33:37.235Z,38.25
2023-01-23T23:36:04.481Z,37.28
2023-01-23T23:38:31.388Z,33.60
2023-01-23T23:41:06.910Z,38.15
2023-01-23T23:43:34.452Z,40.92
2023-01-23T23:46:03.993Z,35.80
2023-01-23T23:48:32.603Z,37.05
2023-01-23T23:51:04.438Z,39.40
2023-01-23T23:53:32.879Z,32.78
2023-01-23T23:56:01.595Z,34.22
2023-01-23T23:58:28.398Z,39.38
